Time;durP1;ratioP1;P1;durP2;ratioP2;P2;SDS_P1;SDS_P2;PMS_P1;PMS_P2;Temp;Humidity;BMP_temperature;BMP_pressure;BME280_temperature;BME280_humidity;BME280_pressure;Samples;Min_cycle;Max_cycle;Signal;HPM_P1;HPM_P2
2021/05/19 00:00:37;;;;;;;4.97;1.30;;;11.60;99.90;;;;;;4977924;28;20034;-77
2021/05/19 00:03:02;;;;;;;6.47;1.15;;;11.60;99.90;;;;;;4990615;28;20041;-77
2021/05/19 00:05:28;;;;;;;6.63;1.08;;;11.70;99.90;;;;;;4982739;28;20027;-77
2021/05/19 00:07:54;;;;;;;11.13;1.27;;;11.70;99.90;;;;;;4981381;28;20489;-78
2021/05/19 00:10:19;;;;;;;12.70;1.27;;;11.80;99.90;;;;;;4959506;28;20375;-78
2021/05/19 00:12:45;;;;;;;6.13;1.20;;;11.90;99.90;;;;;;4981735;28;20053;-78
2021/05/19 00:15:11;;;;;;;7.75;1.00;;;11.90;99.90;;;;;;4967723;28;20453;-78
2021/05/19 00:17:45;;;;;;;3.92;0.70;;;12.10;99.90;;;;;;4986913;28;20023;-78
2021/05/19 00:20:13;;;;;;;4.95;1.17;;;12.20;99.90;;;;;;4989060;28;20088;-78
2021/05/19 00:22:39;;;;;;;3.75;0.70;;;12.30;99.90;;;;;;4976978;28;20027;-78
2021/05/19 00:25:08;;;;;;;8.75;0.80;;;12.40;99.90;;;;;;4976689;28;20055;-78
2021/05/19 00:27:34;;;;;;;7.90;0.90;;;12.50;99.90;;;;;;4963889;28;20486;-78
2021/05/19 00:30:00;;;;;;;7.82;0.90;;;12.60;99.90;;;;;;4976512;28;20026;-78
2021/05/19 00:32:26;;;;;;;4.53;1.17;;;12.60;99.90;;;;;;4976542;28;20050;-78
2021/05/19 00:34:52;;;;;;;8.35;0.98;;;12.60;99.90;;;;;;4977928;28;20070;-78
2021/05/19 00:37:18;;;;;;;4.60;1.00;;;12.60;99.90;;;;;;4971257;28;20027;-78
2021/05/19 00:39:44;;;;;;;7.28;1.35;;;12.60;99.90;;;;;;4978757;28;20523;-78
2021/05/19 00:42:14;;;;;;;8.55;1.00;;;12.60;99.90;;;;;;4976197;28;20033;-78
2021/05/19 00:44:41;;;;;;;7.15;1.52;;;12.60;99.90;;;;;;4988028;28;20122;-79
2021/05/19 00:47:07;;;;;;;5.10;0.93;;;12.60;99.90;;;;;;4976376;28;20029;-78
2021/05/19 00:49:32;;;;;;;7.15;1.00;;;12.60;99.90;;;;;;4982607;28;20027;-78
2021/05/19 00:51:58;;;;;;;14.00;1.45;;;12.70;99.90;;;;;;4985387;28;20115;-78
2021/05/19 00:54:24;;;;;;;7.75;0.98;;;12.70;99.90;;;;;;4987220;28;20031;-78
2021/05/19 00:56:51;;;;;;;9.02;1.50;;;12.80;99.90;;;;;;4976305;28;20113;-78
2021/05/19 00:59:17;;;;;;;8.18;0.88;;;12.80;99.90;;;;;;4977295;28;20402;-78
2021/05/19 01:01:43;;;;;;;9.68;1.05;;;12.80;99.90;;;;;;4987368;28;20482;-78
2021/05/19 01:04:09;;;;;;;6.30;1.02;;;12.80;99.90;;;;;;4973669;28;20026;-78
2021/05/19 01:11:49;;;;;;;9.40;1.10;;;12.50;99.90;;;;;;4980753;28;20540;-78
2021/05/19 01:14:15;;;;;;;6.63;1.00;;;12.30;99.90;;;;;;4975834;28;20031;-78
2021/05/19 01:16:41;;;;;;;9.30;1.27;;;12.20;99.90;;;;;;4986459;28;20030;-78
2021/05/19 01:19:08;;;;;;;9.75;1.10;;;12.20;99.90;;;;;;4958239;28;20401;-78
2021/05/19 01:21:34;;;;;;;8.77;1.15;;;12.20;99.90;;;;;;4975952;28;20042;-74
2021/05/19 01:24:03;;;;;;;6.60;0.90;;;12.20;99.90;;;;;;4990851;28;20023;-78
2021/05/19 01:26:28;;;;;;;8.60;1.20;;;12.10;99.90;;;;;;4978048;28;20027;-78
2021/05/19 01:28:54;;;;;;;10.23;1.23;;;12.00;99.90;;;;;;4975446;28;20030;-78
2021/05/19 01:31:19;;;;;;;5.55;0.93;;;11.90;99.90;;;;;;4975698;28;20077;-78
2021/05/19 01:33:48;;;;;;;4.15;0.95;;;11.80;99.90;;;;;;4988395;28;20085;-78
2021/05/19 01:36:15;;;;;;;12.88;1.10;;;11.80;99.90;;;;;;4985368;28;20133;-78
2021/05/19 01:38:41;;;;;;;7.00;1.42;;;11.80;99.90;;;;;;4977143;28;20038;-78
2021/05/19 01:41:07;;;;;;;7.45;0.93;;;11.90;99.90;;;;;;4973578;28;20030;-78
2021/05/19 01:43:34;;;;;;;6.80;1.13;;;12.20;99.90;;;;;;4984245;28;20023;-78
2021/05/19 01:46:01;;;;;;;7.30;1.13;;;12.30;99.90;;;;;;4978154;28;20069;-78
2021/05/19 01:48:29;;;;;;;7.38;1.23;;;12.40;99.90;;;;;;4979844;28;20031;-75
2021/05/19 01:50:55;;;;;;;8.15;1.30;;;12.50;99.90;;;;;;4991815;28;20026;-78
2021/05/19 01:53:21;;;;;;;6.40;1.10;;;12.60;99.90;;;;;;4975506;28;20408;-79
2021/05/19 01:55:47;;;;;;;9.93;1.45;;;12.60;99.90;;;;;;4984919;28;20026;-78
2021/05/19 01:58:12;;;;;;;11.98;1.63;;;12.50;99.90;;;;;;4993148;28;20080;-78
2021/05/19 02:00:38;;;;;;;16.63;1.50;;;12.50;99.90;;;;;;4992705;28;20029;-78
2021/05/19 02:03:06;;;;;;;11.82;1.70;;;12.40;99.90;;;;;;4974903;28;20035;-78
2021/05/19 02:05:34;;;;;;;20.02;1.75;;;12.40;99.90;;;;;;4972687;28;20422;-78
2021/05/19 02:08:01;;;;;;;9.82;1.05;;;12.40;99.90;;;;;;4994049;28;20026;-78
2021/05/19 02:10:26;;;;;;;12.52;0.98;;;12.40;99.90;;;;;;4981521;28;20516;-78
2021/05/19 02:12:52;;;;;;;15.60;1.23;;;12.40;99.90;;;;;;4980361;28;20022;-79
2021/05/19 02:15:19;;;;;;;10.32;1.33;;;12.40;99.90;;;;;;4981780;28;20446;-78
2021/05/19 02:17:47;;;;;;;7.85;0.98;;;12.40;99.90;;;;;;4974491;28;20470;-78
2021/05/19 02:20:19;;;;;;;5.50;1.00;;;12.40;99.90;;;;;;4974610;28;20030;-78
2021/05/19 02:22:45;;;;;;;11.25;1.20;;;12.40;99.90;;;;;;4974129;28;20041;-78
2021/05/19 02:25:12;;;;;;;10.32;1.30;;;12.50;99.90;;;;;;4974157;28;20031;-79
2021/05/19 02:27:38;;;;;;;10.63;1.35;;;12.50;99.90;;;;;;4981760;28;20027;-78
2021/05/19 02:30:06;;;;;;;15.07;1.67;;;12.60;99.90;;;;;;4977162;28;20030;-79
2021/05/19 02:32:31;;;;;;;11.30;1.27;;;12.60;99.90;;;;;;4974583;28;20026;-78
2021/05/19 02:34:57;;;;;;;10.90;1.45;;;12.50;99.90;;;;;;4974969;28;20057;-78
2021/05/19 02:37:23;;;;;;;12.65;1.30;;;12.50;99.90;;;;;;4991269;28;20054;-78
2021/05/19 02:39:49;;;;;;;17.73;1.90;;;12.50;99.90;;;;;;4977597;28;20062;-78
2021/05/19 02:42:15;;;;;;;13.43;1.63;;;12.50;99.90;;;;;;4976569;28;20078;-78
2021/05/19 02:44:40;;;;;;;11.70;1.30;;;12.50;99.90;;;;;;4977235;28;20050;-78
2021/05/19 02:47:06;;;;;;;8.05;0.82;;;12.40;99.90;;;;;;4974347;28;20035;-78
2021/05/19 02:49:32;;;;;;;8.10;1.15;;;12.40;99.90;;;;;;4976599;28;20026;-78
2021/05/19 02:51:58;;;;;;;16.05;1.25;;;12.30;99.90;;;;;;4974148;28;20023;-77
2021/05/19 02:54:24;;;;;;;14.77;1.50;;;12.30;99.90;;;;;;4974069;28;20513;-78
2021/05/19 02:56:50;;;;;;;11.00;0.98;;;12.20;99.90;;;;;;4974161;28;20037;-78
2021/05/19 02:59:17;;;;;;;11.98;1.27;;;12.20;99.90;;;;;;4986897;28;20041;-78
2021/05/19 03:01:43;;;;;;;10.43;1.48;;;12.10;99.90;;;;;;4974019;28;20033;-78
2021/05/19 03:04:08;;;;;;;10.35;1.00;;;12.10;99.90;;;;;;4972809;28;20034;-77
2021/05/19 03:06:34;;;;;;;8.18;1.30;;;12.20;99.90;;;;;;4981232;28;20026;-77
2021/05/19 03:09:01;;;;;;;5.88;1.38;;;12.20;99.90;;;;;;4993423;28;20030;-78
2021/05/19 03:11:27;;;;;;;13.30;1.17;;;12.20;99.90;;;;;;4984693;28;20022;-78
2021/05/19 03:13:52;;;;;;;5.47;0.82;;;12.20;99.90;;;;;;4990204;28;20032;-78
2021/05/19 03:16:18;;;;;;;6.38;1.02;;;12.10;99.90;;;;;;4984230;28;20019;-78
2021/05/19 03:18:44;;;;;;;5.05;1.00;;;12.10;99.90;;;;;;4988200;28;20034;-78
2021/05/19 03:21:10;;;;;;;11.07;1.05;;;12.10;99.90;;;;;;4956284;28;20034;-77
2021/05/19 03:23:35;;;;;;;4.07;0.82;;;12.00;99.90;;;;;;4983978;28;20023;-78
2021/05/19 03:26:01;;;;;;;7.57;1.20;;;12.00;99.90;;;;;;4972919;28;20114;-78
2021/05/19 03:28:27;;;;;;;10.20;1.30;;;12.00;99.90;;;;;;4984132;28;20430;-78
2021/05/19 03:30:54;;;;;;;10.48;1.95;;;12.00;99.90;;;;;;4973724;28;20039;-78
2021/05/19 03:33:20;;;;;;;14.20;1.80;;;11.90;99.90;;;;;;4974543;28;20023;-78
2021/05/19 03:35:47;;;;;;;10.40;1.92;;;11.90;99.90;;;;;;4977125;28;20486;-78
2021/05/19 03:38:13;;;;;;;8.85;1.90;;;12.00;99.90;;;;;;4977307;28;20058;-78
2021/05/19 03:40:39;;;;;;;10.90;2.13;;;12.00;99.90;;;;;;4977455;28;20055;-78
2021/05/19 03:43:04;;;;;;;10.65;2.22;;;11.90;99.90;;;;;;4977755;28;20062;-78
2021/05/19 03:45:31;;;;;;;12.85;2.42;;;12.00;99.90;;;;;;4977453;28;20042;-78
2021/05/19 03:47:57;;;;;;;20.58;2.58;;;12.10;99.90;;;;;;4986266;28;20482;-78
2021/05/19 03:50:25;;;;;;;14.23;2.13;;;12.10;99.90;;;;;;4977228;28;20029;-78
2021/05/19 03:52:52;;;;;;;16.17;2.75;;;12.00;99.90;;;;;;4977405;28;20031;-78
2021/05/19 03:55:18;;;;;;;22.35;2.95;;;12.10;99.90;;;;;;4976830;28;20402;-78
2021/05/19 03:57:44;;;;;;;19.52;2.80;;;12.00;99.90;;;;;;4987426;28;20085;-78
2021/05/19 04:00:17;;;;;;;13.27;2.60;;;12.10;99.90;;;;;;4985792;28;20429;-78
2021/05/19 04:02:48;;;;;;;;;;;12.00;99.90;;;;;;4980646;28;20494;-79
2021/05/19 04:05:15;;;;;;;17.55;2.17;;;12.10;99.90;;;;;;4965328;28;20305;-78
2021/05/19 04:07:40;;;;;;;12.30;2.20;;;12.10;99.90;;;;;;4981894;28;20026;-78
2021/05/19 04:10:06;;;;;;;23.90;2.80;;;12.20;99.90;;;;;;4959009;28;20034;-78
2021/05/19 04:12:32;;;;;;;24.10;3.05;;;12.20;99.90;;;;;;4976876;28;20023;-78
2021/05/19 04:14:57;;;;;;;16.02;2.70;;;12.20;99.90;;;;;;4959404;28;20130;-78
2021/05/19 04:17:23;;;;;;;19.88;2.78;;;12.30;99.90;;;;;;4980814;28;20036;-78
2021/05/19 04:19:49;;;;;;;17.48;2.78;;;12.20;99.90;;;;;;4986335;28;20109;-78
2021/05/19 04:22:14;;;;;;;27.52;3.28;;;12.30;99.90;;;;;;4979874;28;20512;-78
2021/05/19 04:24:40;;;;;;;16.13;2.65;;;12.30;99.90;;;;;;4986553;28;20030;-75
2021/05/19 04:27:06;;;;;;;13.65;2.63;;;12.40;99.90;;;;;;4982013;28;20041;-78
2021/05/19 04:29:31;;;;;;;18.85;2.40;;;12.40;99.90;;;;;;4996065;28;20023;-78
2021/05/19 04:31:57;;;;;;;20.98;3.05;;;12.40;99.90;;;;;;4986918;28;20034;-78
2021/05/19 04:34:23;;;;;;;17.48;2.25;;;12.50;99.90;;;;;;4975995;28;20030;-77
2021/05/19 04:36:48;;;;;;;18.02;2.97;;;12.50;99.90;;;;;;4974674;28;20489;-78
2021/05/19 04:39:14;;;;;;;21.13;2.42;;;12.50;99.90;;;;;;4995620;28;20046;-77
2021/05/19 04:41:40;;;;;;;26.17;3.10;;;12.60;99.90;;;;;;4979495;28;20033;-78
2021/05/19 04:44:05;;;;;;;25.95;3.05;;;12.60;99.90;;;;;;4986664;28;20062;-78
2021/05/19 04:46:31;;;;;;;21.45;2.85;;;12.60;99.90;;;;;;4988375;28;20031;-78
2021/05/19 04:48:59;;;;;;;20.00;2.60;;;12.60;99.90;;;;;;4985914;28;20489;-78
2021/05/19 04:51:26;;;;;;;24.50;2.53;;;12.60;99.90;;;;;;4993208;28;20097;-78
2021/05/19 04:53:51;;;;;;;13.73;2.08;;;12.60;99.90;;;;;;4995772;28;20114;-78
2021/05/19 04:56:17;;;;;;;19.67;2.42;;;12.70;99.90;;;;;;4972805;28;20054;-78
2021/05/19 04:58:43;;;;;;;21.25;2.20;;;12.60;99.90;;;;;;4976209;28;20481;-78
2021/05/19 05:01:08;;;;;;;15.60;1.92;;;12.60;99.90;;;;;;4982554;28;20042;-78
2021/05/19 05:03:34;;;;;;;17.67;2.30;;;12.60;99.90;;;;;;4984939;28;20050;-75
2021/05/19 05:06:00;;;;;;;18.83;2.35;;;12.60;99.90;;;;;;4974274;28;20066;-79
2021/05/19 05:08:25;;;;;;;12.63;2.05;;;12.70;99.90;;;;;;4985999;28;20030;-78
2021/05/19 05:10:51;;;;;;;19.67;2.50;;;12.70;99.90;;;;;;4978679;28;20287;-78
2021/05/19 05:13:17;;;;;;;6.57;1.35;;;12.80;99.90;;;;;;4975927;28;20019;-78
2021/05/19 05:15:43;;;;;;;18.05;1.98;;;12.80;99.90;;;;;;4994900;28;20441;-78
2021/05/19 05:18:09;;;;;;;17.38;2.25;;;12.80;99.90;;;;;;4982467;28;20053;-78
2021/05/19 05:20:35;;;;;;;15.85;2.15;;;12.90;99.90;;;;;;4978824;28;20038;-78
2021/05/19 05:23:00;;;;;;;12.35;1.88;;;12.90;99.90;;;;;;4984724;28;20157;-78
2021/05/19 05:25:26;;;;;;;14.35;1.95;;;12.80;99.90;;;;;;4976223;28;20490;-78
2021/05/19 05:27:54;;;;;;;12.88;1.83;;;12.80;99.90;;;;;;4978585;28;20023;-78
2021/05/19 05:30:20;;;;;;;8.90;1.13;;;12.80;99.90;;;;;;4975630;28;20027;-78
2021/05/19 05:32:45;;;;;;;11.95;1.85;;;12.80;99.90;;;;;;4975396;28;20030;-78
2021/05/19 05:35:12;;;;;;;21.40;1.95;;;12.80;99.90;;;;;;4979302;28;20070;-78
2021/05/19 05:37:37;;;;;;;13.48;1.63;;;12.70;99.90;;;;;;4969813;28;20054;-77
2021/05/19 05:40:05;;;;;;;18.55;2.13;;;12.70;99.90;;;;;;4972408;28;20405;-77
2021/05/19 05:42:31;;;;;;;14.93;1.95;;;12.70;99.90;;;;;;4957408;28;20035;-77
2021/05/19 05:44:56;;;;;;;20.65;2.25;;;12.70;99.90;;;;;;4961412;28;20058;-79
2021/05/19 05:47:22;;;;;;;12.55;1.70;;;12.80;99.90;;;;;;4985080;28;20054;-78
2021/05/19 05:49:50;;;;;;;9.68;1.63;;;12.80;99.90;;;;;;4987754;28;20486;-77
2021/05/19 05:52:16;;;;;;;10.68;1.75;;;12.80;99.90;;;;;;4975268;28;20030;-78
2021/05/19 05:54:41;;;;;;;11.93;1.67;;;12.90;99.90;;;;;;4974652;28;20026;-73
2021/05/19 05:57:07;;;;;;;15.98;1.92;;;12.90;99.90;;;;;;4975815;28;20508;-78
2021/05/19 05:59:33;;;;;;;11.60;1.60;;;12.80;99.90;;;;;;4974314;28;20078;-78
2021/05/19 06:01:59;;;;;;;19.55;1.92;;;12.80;99.90;;;;;;4984235;28;20027;-78
2021/05/19 06:04:25;;;;;;;12.63;1.45;;;12.80;99.90;;;;;;4976935;28;20478;-79
2021/05/19 06:06:50;;;;;;;13.88;1.63;;;12.90;99.90;;;;;;4971601;28;20537;-78
2021/05/19 06:09:16;;;;;;;11.65;1.23;;;13.00;99.90;;;;;;4972793;28;20385;-78
2021/05/19 06:11:42;;;;;;;11.40;1.40;;;12.70;99.90;;;;;;4971771;28;20031;-78
2021/05/19 06:14:08;;;;;;;16.90;1.58;;;12.50;99.90;;;;;;4970048;28;20034;-73
2021/05/19 06:16:34;;;;;;;11.00;1.17;;;12.40;99.90;;;;;;4975584;28;20062;-77
2021/05/19 06:19:00;;;;;;;13.75;1.48;;;12.30;99.90;;;;;;4976642;28;20485;-77
2021/05/19 06:21:26;;;;;;;13.23;1.45;;;12.30;99.90;;;;;;4965196;28;20035;-77
2021/05/19 06:23:52;;;;;;;14.60;1.50;;;12.30;99.90;;;;;;4971671;28;20371;-77
2021/05/19 06:26:17;;;;;;;13.40;1.58;;;12.40;99.90;;;;;;4971371;28;20074;-77
2021/05/19 06:28:43;;;;;;;7.65;1.38;;;12.60;99.90;;;;;;4973108;28;20026;-77
2021/05/19 06:31:09;;;;;;;9.00;1.65;;;12.70;99.90;;;;;;4971408;28;20490;-77
2021/05/19 06:33:35;;;;;;;15.38;2.00;;;12.90;99.90;;;;;;4973651;28;20026;-77
2021/05/19 06:36:00;;;;;;;9.93;1.30;;;13.20;99.90;;;;;;4973297;28;20035;-77
2021/05/19 06:38:27;;;;;;;8.25;1.60;;;13.40;99.90;;;;;;4971211;28;20137;-78
2021/05/19 06:40:52;;;;;;;14.57;1.70;;;13.50;99.90;;;;;;4982918;28;20421;-77
2021/05/19 06:43:18;;;;;;;13.68;1.70;;;13.50;99.90;;;;;;4977464;28;20096;-77
2021/05/19 06:45:44;;;;;;;11.43;1.55;;;13.40;99.90;;;;;;4972983;28;20042;-77
2021/05/19 06:48:10;;;;;;;13.73;1.70;;;13.50;99.90;;;;;;4975976;28;20045;-77
2021/05/19 06:50:35;;;;;;;7.50;1.58;;;13.70;99.90;;;;;;4968690;28;20030;-76
2021/05/19 06:53:01;;;;;;;8.18;1.52;;;14.20;99.90;;;;;;4971426;28;20050;-75
2021/05/19 06:55:27;;;;;;;17.65;1.63;;;14.60;99.90;;;;;;4978462;28;20101;-74
2021/05/19 06:57:53;;;;;;;14.48;1.83;;;14.60;99.90;;;;;;4976745;28;20031;-75
2021/05/19 07:00:19;;;;;;;10.00;0.88;;;14.50;99.90;;;;;;4975661;28;20022;-75
2021/05/19 07:02:45;;;;;;;15.10;1.63;;;14.50;99.90;;;;;;4978044;28;20034;-75
2021/05/19 07:05:11;;;;;;;10.95;1.90;;;14.70;99.90;;;;;;4976399;28;20686;-74
2021/05/19 07:07:37;;;;;;;11.48;1.48;;;14.60;99.90;;;;;;4971622;28;20026;-75
2021/05/19 07:10:06;;;;;;;8.45;1.00;;;14.50;99.90;;;;;;4969861;28;20038;-75
2021/05/19 07:12:32;;;;;;;6.53;1.92;;;14.40;99.90;;;;;;4972854;28;20447;-75
2021/05/19 07:15:00;;;;;;;10.90;1.73;;;14.50;99.90;;;;;;4978597;28;20115;-75
2021/05/19 07:17:27;;;;;;;8.07;1.33;;;14.50;99.90;;;;;;4975152;28;20050;-76
2021/05/19 07:19:52;;;;;;;12.45;1.95;;;14.40;99.90;;;;;;4973283;28;20031;-75
2021/05/19 07:22:18;;;;;;;11.85;1.58;;;14.20;99.90;;;;;;4971361;28;20096;-75
2021/05/19 07:24:45;;;;;;;10.35;1.60;;;13.60;99.90;;;;;;4979248;28;20062;-75
2021/05/19 07:27:11;;;;;;;6.28;1.25;;;13.40;99.90;;;;;;4978360;28;20030;-75
2021/05/19 07:29:36;;;;;;;9.55;1.42;;;13.60;99.90;;;;;;4972319;28;20385;-75
2021/05/19 07:32:03;;;;;;;16.02;2.10;;;13.70;99.90;;;;;;4970670;28;20482;-75
2021/05/19 07:34:28;;;;;;;8.30;1.65;;;14.00;99.90;;;;;;4961652;28;20030;-75
2021/05/19 07:36:54;;;;;;;10.95;1.80;;;14.70;99.90;;;;;;4975265;28;20035;-75
2021/05/19 07:39:20;;;;;;;8.50;1.17;;;16.30;99.90;;;;;;4979170;28;20035;-75
2021/05/19 07:41:46;;;;;;;12.65;1.80;;;17.70;99.90;;;;;;4964481;28;20034;-75
2021/05/19 07:44:12;;;;;;;8.27;1.48;;;19.00;99.40;;;;;;4981364;28;20069;-75
2021/05/19 07:46:38;;;;;;;14.13;1.70;;;17.70;99.90;;;;;;4971798;28;20042;-75
2021/05/19 07:49:04;;;;;;;8.90;1.75;;;17.10;99.90;;;;;;4977639;28;20027;-75
2021/05/19 07:51:30;;;;;;;10.52;2.55;;;18.20;99.90;;;;;;4977616;28;20962;-76
2021/05/19 07:53:56;;;;;;;8.40;1.50;;;18.90;99.80;;;;;;4977676;28;20031;-75
2021/05/19 07:58:56;;;;;;;7.13;1.60;;;20.90;93.60;;;;;;4979652;28;20460;-76
2021/05/19 08:03:57;;;;;;;6.97;1.65;;;22.60;88.80;;;;;;4974102;28;20054;-76
2021/05/19 08:06:23;;;;;;;6.13;1.20;;;23.60;85.80;;;;;;4957231;28;20117;-75
2021/05/19 08:08:48;;;;;;;3.65;0.80;;;23.50;80.20;;;;;;4969546;28;20368;-74
2021/05/19 08:11:17;;;;;;;5.30;1.08;;;23.20;76.50;;;;;;4967630;28;20902;-75
2021/05/19 08:13:46;;;;;;;6.68;1.60;;;23.10;77.60;;;;;;4976464;28;20034;-75
2021/05/19 08:16:12;;;;;;;6.75;1.30;;;23.90;77.50;;;;;;4970188;28;20073;-75
2021/05/19 08:18:38;;;;;;;2.70;1.30;;;23.30;76.50;;;;;;4974898;28;20137;-74
2021/05/19 08:21:04;;;;;;;6.35;1.30;;;23.20;78.60;;;;;;4962291;28;20043;-74
2021/05/19 08:23:32;;;;;;;2.75;1.23;;;23.80;76.20;;;;;;4974812;28;20037;-74
2021/05/19 08:25:58;;;;;;;3.42;1.40;;;24.50;72.00;;;;;;4959963;28;20034;-74
2021/05/19 08:28:35;;;;;;;8.15;1.60;;;24.50;72.90;;;;;;4973268;28;20118;-74
2021/05/19 08:31:02;;;;;;;7.57;1.50;;;24.70;71.90;;;;;;4974106;28;20073;-74
2021/05/19 08:33:28;;;;;;;4.93;1.13;;;24.90;69.70;;;;;;4976904;28;20501;-74
2021/05/19 08:36:07;;;;;;;3.78;1.20;;;23.80;68.70;;;;;;4957476;28;20057;-75
2021/05/19 08:38:35;;;;;;;3.63;1.60;;;24.80;69.20;;;;;;4969376;28;20050;-74
2021/05/19 08:41:05;;;;;;;1.85;0.70;;;25.40;66.20;;;;;;4958493;28;20027;-74
2021/05/19 08:43:31;;;;;;;4.43;1.35;;;23.10;67.10;;;;;;4970583;28;20031;-74
2021/05/19 08:45:58;;;;;;;9.45;1.35;;;23.60;69.60;;;;;;4974596;28;20465;-74
2021/05/19 08:48:24;;;;;;;9.77;1.60;;;23.00;69.30;;;;;;4958144;28;20030;-74
2021/05/19 08:50:51;;;;;;;3.95;1.20;;;23.60;70.40;;;;;;4968625;28;20026;-74
2021/05/19 08:53:17;;;;;;;8.27;1.40;;;24.80;67.00;;;;;;4956824;28;20391;-74
2021/05/19 08:55:43;;;;;;;3.45;1.20;;;25.50;66.10;;;;;;4955836;28;20038;-74
2021/05/19 08:58:08;;;;;;;6.55;1.38;;;26.10;62.50;;;;;;4973147;28;20082;-74
2021/05/19 09:00:34;;;;;;;3.65;1.13;;;26.40;63.60;;;;;;4972962;28;20026;-74
2021/05/19 09:03:11;;;;;;;5.50;1.02;;;23.90;66.20;;;;;;4975228;28;20023;-74
2021/05/19 09:05:39;;;;;;;9.55;1.90;;;23.50;67.10;;;;;;4970488;28;20034;-74
2021/05/19 09:08:07;;;;;;;5.72;1.70;;;23.30;71.40;;;;;;4960123;28;20458;-74
2021/05/19 09:10:34;;;;;;;5.88;1.98;;;23.70;72.20;;;;;;4972600;28;20102;-74
2021/05/19 09:13:00;;;;;;;14.27;1.10;;;24.40;68.90;;;;;;4980070;28;20034;-74
2021/05/19 09:15:44;;;;;;;5.47;1.33;;;21.20;75.90;;;;;;4972611;28;20031;-74
2021/05/19 09:18:09;;;;;;;5.47;1.30;;;20.50;80.40;;;;;;4971967;28;20409;-74
2021/05/19 09:20:48;;;;;;;12.20;2.33;;;21.60;75.30;;;;;;4964504;28;20019;-73
2021/05/19 09:23:19;;;;;;;7.70;1.45;;;20.60;76.70;;;;;;4972926;28;20405;-75
2021/05/19 09:26:12;;;;;;;5.13;1.67;;;20.20;81.30;;;;;;4962547;28;20031;-74
2021/05/19 09:28:38;;;;;;;9.55;1.23;;;20.40;78.50;;;;;;4956458;28;20600;-74
2021/05/19 09:31:19;;;;;;;9.95;1.80;;;20.00;79.50;;;;;;4961541;28;20046;-74
2021/05/19 09:33:55;;;;;;;11.27;1.77;;;21.50;78.80;;;;;;4960056;28;20026;-75
2021/05/19 09:36:24;;;;;;;6.90;2.03;;;23.80;73.50;;;;;;4961783;28;20054;-75
2021/05/19 09:38:53;;;;;;;6.28;1.83;;;25.20;66.60;;;;;;4968856;28;20054;-75
2021/05/19 09:41:32;;;;;;;9.00;1.90;;;25.20;66.00;;;;;;4977620;28;20027;-74
2021/05/19 09:44:10;;;;;;;7.90;1.80;;;23.90;70.80;;;;;;4966151;28;20113;-74
2021/05/19 09:46:57;;;;;;;5.75;1.60;;;24.60;68.30;;;;;;4980249;28;20057;-75
2021/05/19 09:49:23;;;;;;;5.30;1.75;;;25.30;65.60;;;;;;4962511;28;20081;-74
2021/05/19 09:51:52;;;;;;;4.68;1.45;;;25.40;63.80;;;;;;4955531;28;20039;-74
2021/05/19 09:54:39;;;;;;;4.93;1.70;;;25.50;66.10;;;;;;4956079;28;20034;-75
2021/05/19 09:57:07;;;;;;;8.05;1.92;;;24.40;66.20;;;;;;4954572;28;20129;-75
2021/05/19 09:59:34;;;;;;;4.70;1.63;;;23.70;67.00;;;;;;4968239;28;20034;-75
2021/05/19 10:02:01;;;;;;;4.72;1.42;;;24.10;68.40;;;;;;4961928;28;20026;-74
2021/05/19 10:04:34;;;;;;;5.30;1.73;;;23.40;66.90;;;;;;4958161;28;20047;-75
2021/05/19 10:07:00;;;;;;;7.72;1.77;;;24.00;67.10;;;;;;4953303;28;20057;-75
2021/05/19 10:09:27;;;;;;;6.18;2.00;;;24.20;66.80;;;;;;4956410;28;20125;-74
2021/05/19 10:11:54;;;;;;;6.13;1.85;;;25.40;65.20;;;;;;4971949;28;20027;-75
2021/05/19 10:14:22;;;;;;;10.60;1.80;;;25.10;65.00;;;;;;4956856;28;20062;-75
2021/05/19 10:17:02;;;;;;;6.60;1.70;;;25.00;65.90;;;;;;4971287;28;20494;-74
2021/05/19 10:19:34;;;;;;;6.43;2.03;;;24.40;67.60;;;;;;4952239;28;20067;-74
2021/05/19 10:22:05;;;;;;;5.25;1.77;;;24.50;66.90;;;;;;4970664;28;20411;-74
2021/05/19 10:25:06;;;;;;;7.85;1.90;;;23.60;67.60;;;;;;4969853;28;20035;-75
2021/05/19 10:27:52;;;;;;;6.47;2.13;;;24.40;66.70;;;;;;4970171;28;20050;-74
2021/05/19 10:30:37;;;;;;;8.27;1.73;;;25.10;66.50;;;;;;4952101;28;20034;-74
2021/05/19 10:33:03;;;;;;;6.68;1.60;;;24.80;66.70;;;;;;4958818;28;20048;-74
2021/05/19 10:35:37;;;;;;;5.25;1.52;;;24.60;65.30;;;;;;4953508;28;20465;-75
2021/05/19 10:38:35;;;;;;;4.53;1.13;;;23.80;67.20;;;;;;4954850;28;20047;-75
2021/05/19 10:41:17;;;;;;;5.25;1.20;;;21.50;70.20;;;;;;4970671;28;20038;-74
2021/05/19 10:43:54;;;;;;;9.07;2.25;;;20.30;75.60;;;;;;4968768;28;20482;-75
2021/05/19 10:46:58;;;;;;;10.18;2.03;;;21.60;74.80;;;;;;4953437;28;20033;-74
2021/05/19 10:49:48;;;;;;;9.57;1.33;;;22.10;74.90;;;;;;4977977;28;20096;-75
2021/05/19 10:52:27;;;;;;;5.05;1.30;;;23.30;72.50;;;;;;4953575;28;20045;-75
2021/05/19 10:57:58;;;;;;;6.45;0.85;;;20.50;82.80;;;;;;4975121;28;20096;-73
2021/05/19 11:00:26;;;;;;;4.32;0.82;;;18.40;85.00;;;;;;4955875;28;20027;-73
2021/05/19 11:02:56;;;;;;;5.13;1.02;;;17.90;89.00;;;;;;4972309;28;20031;-73
2021/05/19 11:05:59;;;;;;;6.63;0.93;;;18.30;89.40;;;;;;4977434;28;20038;-73
2021/05/19 11:08:30;;;;;;;7.65;1.25;;;18.60;88.80;;;;;;4968929;28;20027;-75
2021/05/19 11:11:14;;;;;;;7.20;1.38;;;18.50;88.10;;;;;;4972525;28;20077;-75
2021/05/19 11:14:06;;;;;;;5.63;1.13;;;19.80;88.60;;;;;;4975249;28;20033;-75
2021/05/19 11:16:42;;;;;;;5.28;1.30;;;20.40;83.70;;;;;;4971717;28;20058;-76
2021/05/19 11:19:19;;;;;;;6.00;1.27;;;20.40;85.80;;;;;;4971253;28;20031;-75
2021/05/19 11:21:44;;;;;;;6.32;1.23;;;20.20;81.60;;;;;;4972354;28;20022;-76
2021/05/19 11:24:15;;;;;;;4.72;1.30;;;19.80;80.30;;;;;;4970223;28;20035;-75
2021/05/19 11:26:46;;;;;;;3.03;1.10;;;20.40;83.00;;;;;;4972355;28;20478;-75
2021/05/19 11:29:14;;;;;;;8.27;1.20;;;21.00;76.60;;;;;;4969435;28;20023;-76
2021/05/19 11:31:43;;;;;;;7.22;1.13;;;21.30;75.30;;;;;;4970166;28;20050;-76
2021/05/19 11:34:10;;;;;;;7.65;1.55;;;22.00;70.50;;;;;;4973111;28;20117;-76
2021/05/19 11:36:41;;;;;;;7.70;1.27;;;21.50;73.60;;;;;;4973081;28;20037;-76
2021/05/19 11:39:27;;;;;;;8.43;1.38;;;22.80;71.00;;;;;;4977811;28;20461;-75
2021/05/19 11:42:28;;;;;;;9.07;1.20;;;22.90;71.90;;;;;;4970523;28;20035;-75
2021/05/19 11:44:58;;;;;;;6.45;1.30;;;22.80;70.40;;;;;;4970331;28;20035;-75
2021/05/19 11:47:36;;;;;;;14.20;1.80;;;22.00;71.70;;;;;;4970436;28;20086;-75
2021/05/19 11:50:16;;;;;;;6.25;1.23;;;21.00;75.20;;;;;;4971710;28;20026;-77
2021/05/19 11:52:50;;;;;;;9.68;1.50;;;21.10;76.90;;;;;;4968556;28;20027;-76
2021/05/19 11:55:25;;;;;;;7.90;1.70;;;21.20;77.50;;;;;;4972595;28;20038;-77
2021/05/19 11:57:51;;;;;;;9.30;1.38;;;22.50;76.10;;;;;;4966829;28;20035;-77
2021/05/19 12:00:31;;;;;;;9.02;1.65;;;22.40;72.40;;;;;;4978722;28;20035;-77
2021/05/19 12:02:58;;;;;;;11.15;1.83;;;22.60;73.90;;;;;;4974693;28;20026;-76
2021/05/19 12:05:24;;;;;;;9.52;1.50;;;22.00;73.70;;;;;;4975938;28;20027;-76
2021/05/19 12:07:50;;;;;;;9.88;1.80;;;22.50;74.10;;;;;;4983184;28;20030;-77
2021/05/19 12:10:16;;;;;;;10.90;1.83;;;21.60;74.40;;;;;;4973861;28;20046;-77
2021/05/19 12:12:42;;;;;;;11.27;1.55;;;21.20;77.30;;;;;;4977960;28;20034;-77
2021/05/19 12:15:08;;;;;;;7.18;1.52;;;21.10;75.90;;;;;;4978391;28;20034;-76
2021/05/19 12:17:34;;;;;;;8.98;1.70;;;21.00;80.80;;;;;;4968137;28;20034;-77
2021/05/19 12:20:00;;;;;;;12.20;1.63;;;21.60;78.40;;;;;;4978877;28;20043;-76
2021/05/19 12:22:26;;;;;;;12.70;1.65;;;21.80;77.10;;;;;;4974467;28;20553;-77
2021/05/19 12:24:53;;;;;;;4.80;0.90;;;22.20;74.60;;;;;;4974046;28;20093;-77
2021/05/19 12:27:22;;;;;;;8.90;1.50;;;21.10;74.00;;;;;;4972814;28;20092;-76
2021/05/19 12:29:58;;;;;;;7.35;1.48;;;21.80;76.00;;;;;;4972936;28;20035;-77
2021/05/19 12:32:30;;;;;;;3.22;1.10;;;22.20;74.60;;;;;;4980537;28;20018;-77
2021/05/19 12:35:06;;;;;;;;;;;22.60;71.00;;;;;;4981184;28;20084;-80
2021/05/19 12:37:43;;;;;;;3.92;1.23;;;21.80;71.10;;;;;;4983122;28;19914;-77
2021/05/19 12:40:10;;;;;;;4.53;1.17;;;21.70;75.40;;;;;;4980788;28;20043;-78
2021/05/19 12:42:47;;;;;;;6.82;1.45;;;22.10;75.60;;;;;;4978573;28;20059;-77
2021/05/19 12:45:14;;;;;;;8.57;1.30;;;22.50;76.10;;;;;;4960056;28;20101;-78
2021/05/19 12:47:40;;;;;;;13.32;1.30;;;22.20;72.90;;;;;;4977706;28;20027;-77
2021/05/19 12:50:08;;;;;;;5.28;1.33;;;20.10;78.40;;;;;;4974702;28;20031;-77
2021/05/19 12:52:36;;;;;;;9.57;1.42;;;20.40;79.30;;;;;;4966941;28;20022;-77
2021/05/19 12:55:05;;;;;;;6.10;1.40;;;19.80;82.30;;;;;;4973974;28;20035;-80
2021/05/19 12:57:35;;;;;;;8.43;1.20;;;18.20;84.60;;;;;;4973766;28;20043;-76
2021/05/19 13:00:04;;;;;;;10.57;1.33;;;18.10;88.00;;;;;;4973890;28;20444;-78
2021/05/19 13:02:36;;;;;;;13.18;1.55;;;18.10;88.60;;;;;;4974605;28;20074;-77